createdAt,value
2019-03-11T00:00:11.490Z,26.90
2019-03-11T00:00:54.341Z,26.90
2019-03-11T00:01:37.308Z,26.90
2019-03-11T00:02:17.163Z,27.00
2019-03-11T00:02:55.925Z,26.90
2019-03-11T00:03:35.866Z,27.00
2019-03-11T00:04:16.054Z,27.00
2019-03-11T00:04:55.774Z,27.00
2019-03-11T00:05:34.770Z,27.00
2019-03-11T00:06:14.375Z,27.00
2019-03-11T00:06:53.353Z,26.90
2019-03-11T00:07:32.113Z,26.90
2019-03-11T00:08:10.907Z,26.90
2019-03-11T00:08:50.048Z,26.90
2019-03-11T00:09:29.569Z,26.90
2019-03-11T00:10:09.345Z,26.90
2019-03-11T00:10:48.816Z,26.90
2019-03-11T00:11:28.363Z,26.90
2019-03-11T00:12:07.576Z,26.90
2019-03-11T00:12:46.901Z,26.90
2019-03-11T00:13:26.832Z,26.90
2019-03-11T00:14:06.187Z,26.90
2019-03-11T00:14:45.685Z,26.90
2019-03-11T00:15:25.107Z,26.90
2019-03-11T00:16:03.843Z,26.90
2019-03-11T00:16:42.593Z,26.90
2019-03-11T00:17:21.483Z,26.90
2019-03-11T00:18:00.399Z,26.90
2019-03-11T00:18:39.560Z,26.90
2019-03-11T00:19:19.087Z,26.90
2019-03-11T00:19:58.346Z,26.90
2019-03-11T00:20:38.281Z,26.90
2019-03-11T00:21:17.596Z,26.90
2019-03-11T00:21:57.617Z,26.90
2019-03-11T00:22:36.930Z,26.90
2019-03-11T00:23:16.472Z,26.90
2019-03-11T00:23:56.016Z,26.90
2019-03-11T00:24:35.006Z,26.90
2019-03-11T00:25:13.851Z,26.90
2019-03-11T00:25:54.061Z,26.90
2019-03-11T00:26:33.073Z,26.90
2019-03-11T00:27:11.880Z,26.90
2019-03-11T00:27:51.507Z,26.90
2019-03-11T00:28:30.241Z,26.90
2019-03-11T00:29:09.689Z,26.90
2019-03-11T00:29:49.539Z,26.90
2019-03-11T00:30:28.731Z,26.90
2019-03-11T00:31:08.062Z,27.00
2019-03-11T00:31:47.494Z,26.90
2019-03-11T00:32:26.706Z,26.90
2019-03-11T00:33:05.477Z,27.00
2019-03-11T00:33:44.334Z,26.90
2019-03-11T00:34:23.270Z,27.00
2019-03-11T00:35:01.970Z,27.00
2019-03-11T00:35:40.977Z,27.00
2019-03-11T00:36:20.485Z,26.90
2019-03-11T00:36:59.741Z,27.00
2019-03-11T00:37:39.286Z,27.00
2019-03-11T00:38:18.049Z,27.00
2019-03-11T00:38:57.375Z,27.00
2019-03-11T00:39:36.977Z,27.00
2019-03-11T00:40:16.323Z,27.00
2019-03-11T00:40:55.114Z,27.00
2019-03-11T00:41:40.388Z,27.00
2019-03-11T00:42:19.341Z,27.00
2019-03-11T00:43:00.642Z,27.00
2019-03-11T00:43:58.952Z,27.00
2019-03-11T00:44:38.492Z,27.00
2019-03-11T00:45:17.963Z,27.00
2019-03-11T00:45:57.348Z,27.10
2019-03-11T00:46:36.742Z,27.10
2019-03-11T00:47:15.499Z,27.10
2019-03-11T00:48:01.995Z,27.10
2019-03-11T00:48:37.642Z,27.00
2019-03-11T00:49:16.437Z,27.00
2019-03-11T00:49:55.644Z,27.10
2019-03-11T00:50:34.352Z,27.10
2019-03-11T00:51:13.382Z,27.10
2019-03-11T00:51:53.196Z,27.10
2019-03-11T00:52:32.303Z,27.10
2019-03-11T00:53:11.709Z,27.10
2019-03-11T00:53:51.289Z,27.10
2019-03-11T00:54:30.537Z,27.10
2019-03-11T00:55:10.408Z,27.10
2019-03-11T00:55:49.213Z,27.10
2019-03-11T00:56:28.487Z,27.10
2019-03-11T00:57:08.035Z,27.10
2019-03-11T00:57:48.380Z,27.10
2019-03-11T00:58:27.352Z,27.10
2019-03-11T00:59:06.681Z,27.10
2019-03-11T00:59:45.558Z,27.10
2019-03-11T01:00:28.931Z,27.10
2019-03-11T01:01:07.683Z,27.10
2019-03-11T01:01:46.529Z,27.10
2019-03-11T01:02:25.511Z,27.10
2019-03-11T01:03:04.401Z,27.10
2019-03-11T01:04:03.726Z,27.10
2019-03-11T01:04:42.877Z,27.10
2019-03-11T01:05:22.786Z,27.10
2019-03-11T01:06:03.386Z,27.10
2019-03-11T01:06:43.559Z,27.10
2019-03-11T01:07:22.825Z,27.20
2019-03-11T01:08:02.171Z,27.10
2019-03-11T01:08:41.695Z,27.10
2019-03-11T01:09:20.966Z,27.20
2019-03-11T01:10:00.392Z,27.20
2019-03-11T01:10:39.896Z,27.20
2019-03-11T01:11:19.221Z,27.20
2019-03-11T01:11:58.659Z,27.20
2019-03-11T01:12:37.376Z,27.20
2019-03-11T01:13:16.804Z,27.20
2019-03-11T01:13:56.708Z,27.20
2019-03-11T01:14:36.169Z,27.20
2019-03-11T01:15:15.057Z,27.30
2019-03-11T01:15:54.482Z,27.20
2019-03-11T01:16:33.208Z,27.30
2019-03-11T01:17:12.820Z,27.30
2019-03-11T01:17:52.515Z,27.20
2019-03-11T01:18:31.195Z,27.20
2019-03-11T01:19:10.335Z,27.30
2019-03-11T01:19:49.393Z,27.40
2019-03-11T01:20:28.297Z,27.70
2019-03-11T01:21:07.264Z,27.90
2019-03-11T01:21:46.516Z,28.00
2019-03-11T01:22:25.801Z,28.00
2019-03-11T01:23:05.069Z,28.10
2019-03-11T01:23:44.462Z,28.10
2019-03-11T01:24:25.433Z,28.10
2019-03-11T01:25:05.210Z,28.10
2019-03-11T01:25:44.847Z,28.10
2019-03-11T01:26:24.013Z,28.10
2019-03-11T01:27:03.333Z,28.20
2019-03-11T01:27:42.839Z,28.10
2019-03-11T01:28:22.179Z,28.20
2019-03-11T01:29:00.969Z,28.10
2019-03-11T01:29:40.155Z,28.20
2019-03-11T01:30:18.942Z,28.20
2019-03-11T01:30:58.060Z,28.20
2019-03-11T01:31:36.959Z,28.20
2019-03-11T01:32:16.173Z,28.20
2019-03-11T01:32:55.556Z,28.20
2019-03-11T01:33:34.903Z,28.20
2019-03-11T01:34:14.348Z,28.20
2019-03-11T01:34:53.703Z,28.20
2019-03-11T01:35:33.300Z,28.20
2019-03-11T01:36:12.656Z,28.30
2019-03-11T01:36:52.298Z,28.30
2019-03-11T01:37:31.528Z,28.30
2019-03-11T01:38:10.309Z,28.30
2019-03-11T01:38:49.033Z,28.30
2019-03-11T01:39:29.361Z,28.40
2019-03-11T01:40:11.650Z,28.30
2019-03-11T01:40:51.096Z,28.30
2019-03-11T01:41:30.142Z,28.40
2019-03-11T01:42:08.778Z,28.40
2019-03-11T01:42:47.922Z,28.40
2019-03-11T01:43:27.155Z,28.40
2019-03-11T01:44:06.225Z,28.40
2019-03-11T01:44:45.573Z,28.60
2019-03-11T01:45:24.951Z,28.70
2019-03-11T01:46:03.941Z,28.90
2019-03-11T01:46:45.002Z,29.00
2019-03-11T01:47:24.595Z,29.10
2019-03-11T01:48:04.508Z,29.10
2019-03-11T01:48:43.156Z,29.20
2019-03-11T01:49:23.974Z,29.20
2019-03-11T01:50:03.387Z,29.10
2019-03-11T01:50:42.126Z,29.00
2019-03-11T01:51:20.872Z,28.90
2019-03-11T01:51:59.546Z,28.90
2019-03-11T01:52:38.981Z,28.80
2019-03-11T01:53:18.109Z,28.80
2019-03-11T01:53:56.912Z,28.80
2019-03-11T01:54:36.411Z,28.80
2019-03-11T01:55:15.801Z,28.80
2019-03-11T01:55:55.447Z,28.80
2019-03-11T01:56:34.799Z,28.80
2019-03-11T01:57:14.102Z,28.80
2019-03-11T01:57:53.529Z,28.80
2019-03-11T01:58:32.965Z,28.80
2019-03-11T01:59:11.601Z,28.80
2019-03-11T01:59:50.800Z,28.80
2019-03-11T02:00:29.507Z,28.80
2019-03-11T02:01:08.933Z,28.70
2019-03-11T02:01:48.625Z,28.60
2019-03-11T02:02:27.892Z,28.60
2019-03-11T02:03:07.464Z,28.60
2019-03-11T02:03:46.738Z,28.60
2019-03-11T02:04:25.548Z,28.70
2019-03-11T02:05:04.831Z,28.70
2019-03-11T02:05:43.585Z,28.60
2019-03-11T02:06:22.703Z,28.70
2019-03-11T02:07:01.491Z,28.70
2019-03-11T02:07:40.225Z,28.70
2019-03-11T02:08:19.153Z,28.70
2019-03-11T02:08:58.313Z,28.70
2019-03-11T02:09:37.869Z,28.70
2019-03-11T02:10:17.540Z,28.80
2019-03-11T02:10:56.935Z,28.70
2019-03-11T02:11:36.319Z,28.80
2019-03-11T02:12:15.949Z,28.70
2019-03-11T02:12:55.422Z,28.80
2019-03-11T02:13:34.905Z,28.70
2019-03-11T02:14:13.750Z,28.80
2019-03-11T02:15:12.407Z,28.80
2019-03-11T02:15:51.201Z,28.80
2019-03-11T02:16:30.047Z,28.70
2019-03-11T02:17:08.793Z,28.80
2019-03-11T02:17:48.354Z,28.80
2019-03-11T02:18:27.793Z,28.80
2019-03-11T02:19:26.252Z,28.80
2019-03-11T02:20:05.758Z,28.80
2019-03-11T02:20:45.294Z,28.80
2019-03-11T02:21:24.183Z,28.80
2019-03-11T02:22:02.995Z,28.80
2019-03-11T02:22:41.742Z,28.90
2019-03-11T02:23:20.639Z,28.90
2019-03-11T02:23:59.865Z,28.90
2019-03-11T02:24:39.112Z,28.90
2019-03-11T02:25:18.382Z,28.90
2019-03-11T02:25:57.878Z,28.90
2019-03-11T02:26:37.309Z,28.90
2019-03-11T02:27:16.477Z,28.90
2019-03-11T02:27:56.021Z,28.90
2019-03-11T02:28:34.966Z,28.90
2019-03-11T02:29:14.228Z,28.80
2019-03-11T02:29:53.001Z,28.90
2019-03-11T02:30:31.752Z,28.80
2019-03-11T02:31:10.780Z,28.90
2019-03-11T02:31:49.669Z,28.80
2019-03-11T02:32:29.042Z,28.90
2019-03-11T02:33:08.315Z,28.90
2019-03-11T02:33:47.767Z,28.90
2019-03-11T02:34:27.218Z,28.90
2019-03-11T02:35:06.036Z,28.90
2019-03-11T02:35:44.775Z,28.90
2019-03-11T02:36:23.569Z,28.90
2019-03-11T02:37:02.224Z,28.90
2019-03-11T02:37:41.015Z,28.90
2019-03-11T02:38:20.594Z,28.90
2019-03-11T02:38:59.641Z,28.90
2019-03-11T02:39:39.128Z,28.90
2019-03-11T02:40:18.555Z,28.90
2019-03-11T02:40:57.912Z,29.00
2019-03-11T02:41:37.460Z,29.00
2019-03-11T02:42:16.340Z,29.00
2019-03-11T02:42:55.726Z,29.00
2019-03-11T02:43:34.395Z,29.00
2019-03-11T02:44:13.187Z,29.00
2019-03-11T02:44:52.185Z,29.10
2019-03-11T02:45:31.853Z,29.10
2019-03-11T02:46:10.770Z,29.10
2019-03-11T02:46:50.188Z,29.10
2019-03-11T02:47:29.623Z,29.10
2019-03-11T02:48:08.255Z,29.10
2019-03-11T02:48:46.962Z,29.10
2019-03-11T02:49:26.318Z,29.10
2019-03-11T02:50:05.026Z,29.10
2019-03-11T02:50:43.766Z,29.10
2019-03-11T02:51:23.003Z,29.10
2019-03-11T02:52:02.786Z,29.10
2019-03-11T02:52:41.771Z,29.10
2019-03-11T02:53:20.849Z,29.20
2019-03-11T02:53:59.981Z,29.20
2019-03-11T02:54:39.407Z,29.20
2019-03-11T02:55:18.893Z,29.20
2019-03-11T02:55:58.232Z,29.20
2019-03-11T02:56:37.090Z,29.30
2019-03-11T02:57:16.210Z,29.30
2019-03-11T02:57:55.667Z,29.20
2019-03-11T02:58:35.016Z,29.30
2019-03-11T02:59:13.780Z,29.30
2019-03-11T02:59:52.788Z,29.30
2019-03-11T03:00:32.003Z,29.30
2019-03-11T03:01:27.713Z,29.30
2019-03-11T03:02:34.293Z,29.30
2019-03-11T03:03:49.730Z,29.30
2019-03-11T03:04:33.859Z,29.30
2019-03-11T03:05:25.049Z,29.30
2019-03-11T03:06:08.093Z,29.30
2019-03-11T03:06:47.412Z,29.30
2019-03-11T03:07:26.100Z,29.30
2019-03-11T03:08:04.865Z,29.20
2019-03-11T03:08:43.925Z,29.30
2019-03-11T03:09:23.540Z,29.30
2019-03-11T03:10:03.032Z,29.30
2019-03-11T03:10:42.536Z,29.30
2019-03-11T03:11:21.834Z,29.30
2019-03-11T03:12:01.373Z,29.30
2019-03-11T03:12:40.501Z,29.30
2019-03-11T03:13:19.826Z,29.30
2019-03-11T03:13:59.786Z,29.30
2019-03-11T03:14:39.816Z,29.30
2019-03-11T03:15:18.488Z,29.20
2019-03-11T03:15:58.367Z,29.30
2019-03-11T03:16:37.512Z,29.30
2019-03-11T03:17:16.231Z,29.30
2019-03-11T03:17:55.092Z,29.30
2019-03-11T03:18:34.374Z,29.30
2019-03-11T03:19:13.524Z,29.40
2019-03-11T03:19:52.847Z,29.30
2019-03-11T03:20:32.492Z,29.40
2019-03-11T03:21:12.467Z,29.30
2019-03-11T03:21:52.382Z,29.30
2019-03-11T03:22:31.984Z,29.30
2019-03-11T03:23:11.318Z,29.30
2019-03-11T03:23:50.869Z,29.30
2019-03-11T03:24:30.222Z,29.40
2019-03-11T03:25:10.278Z,29.40
2019-03-11T03:25:50.346Z,29.40
2019-03-11T03:26:29.843Z,29.40
2019-03-11T03:27:09.042Z,29.40
2019-03-11T03:27:47.843Z,29.40
2019-03-11T03:28:26.664Z,29.40
2019-03-11T03:29:05.571Z,29.50
2019-03-11T03:29:44.956Z,29.50
2019-03-11T03:30:24.242Z,29.50
2019-03-11T03:31:03.470Z,29.50
2019-03-11T03:31:42.647Z,29.40
2019-03-11T03:32:22.108Z,29.50
2019-03-11T03:33:01.690Z,29.50
2019-03-11T03:33:41.069Z,29.40
2019-03-11T03:34:19.874Z,29.40
2019-03-11T03:34:59.097Z,29.50
2019-03-11T03:35:38.650Z,29.40
2019-03-11T03:36:17.506Z,29.50
2019-03-11T03:36:56.403Z,29.50
2019-03-11T03:37:35.564Z,29.60
2019-03-11T03:38:28.866Z,29.50
2019-03-11T03:38:55.111Z,29.60
2019-03-11T03:39:35.278Z,29.60
2019-03-11T03:40:15.263Z,29.60
2019-03-11T03:40:54.438Z,29.60
2019-03-11T03:41:33.967Z,29.50
2019-03-11T03:42:13.761Z,29.50
2019-03-11T03:42:53.451Z,29.60
2019-03-11T03:43:32.705Z,29.60
2019-03-11T03:44:12.446Z,29.60
2019-03-11T03:45:25.953Z,29.60
2019-03-11T03:46:17.938Z,29.60
2019-03-11T03:46:45.397Z,29.60
2019-03-11T03:47:24.814Z,29.60
2019-03-11T03:48:07.309Z,29.60
2019-03-11T03:48:46.931Z,29.60
2019-03-11T03:49:26.542Z,29.60
2019-03-11T03:50:05.951Z,29.60
2019-03-11T03:50:45.185Z,29.60
2019-03-11T03:51:24.830Z,29.60
2019-03-11T03:52:07.709Z,29.60
2019-03-11T03:52:46.941Z,29.60
2019-03-11T03:53:26.312Z,29.60
2019-03-11T03:54:05.681Z,29.60
2019-03-11T03:54:44.768Z,29.60
2019-03-11T03:55:24.396Z,29.60
2019-03-11T03:56:03.497Z,29.60
2019-03-11T03:56:42.718Z,29.60
2019-03-11T03:57:21.423Z,29.50
2019-03-11T03:58:00.168Z,29.60
2019-03-11T03:58:39.086Z,29.60
2019-03-11T03:59:18.174Z,29.70
2019-03-11T03:59:57.466Z,29.70
2019-03-11T04:00:36.981Z,29.70
2019-03-11T04:01:16.425Z,29.70
2019-03-11T04:01:55.877Z,29.70
2019-03-11T04:02:35.023Z,29.70
2019-03-11T04:03:13.736Z,29.60
2019-03-11T04:03:53.240Z,29.60
2019-03-11T04:04:32.265Z,29.70
2019-03-11T04:05:11.098Z,29.70
2019-03-11T04:05:49.869Z,29.70
2019-03-11T04:06:28.701Z,29.70
2019-03-11T04:07:07.826Z,29.60
2019-03-11T04:07:47.188Z,29.60
2019-03-11T04:08:26.596Z,29.60
2019-03-11T04:09:05.945Z,29.60
2019-03-11T04:09:45.407Z,29.60
2019-03-11T04:10:24.778Z,29.60
2019-03-11T04:11:04.725Z,29.60
2019-03-11T04:11:43.653Z,29.60
2019-03-11T04:12:22.365Z,29.60
2019-03-11T04:13:01.599Z,29.60
2019-03-11T04:13:40.322Z,29.70
2019-03-11T04:14:19.359Z,29.70
2019-03-11T04:14:58.581Z,29.70
2019-03-11T04:15:38.309Z,29.60
2019-03-11T04:16:17.684Z,29.70
2019-03-11T04:16:56.887Z,29.60
2019-03-11T04:17:36.187Z,29.70
2019-03-11T04:18:15.524Z,29.70
2019-03-11T04:18:56.781Z,29.70
2019-03-11T04:19:35.882Z,29.70
2019-03-11T04:20:16.762Z,29.70
2019-03-11T04:20:56.294Z,29.70
2019-03-11T04:21:35.705Z,29.70
2019-03-11T04:22:15.218Z,29.70
2019-03-11T04:22:53.850Z,29.70
2019-03-11T04:23:32.602Z,29.70
2019-03-11T04:24:11.945Z,29.70
2019-03-11T04:24:50.651Z,29.80
2019-03-11T04:25:31.551Z,29.70
2019-03-11T04:26:10.221Z,29.80
2019-03-11T04:26:53.453Z,29.80
2019-03-11T04:27:32.214Z,29.90
2019-03-11T04:28:11.030Z,29.90
2019-03-11T04:28:50.063Z,29.90
2019-03-11T04:29:29.944Z,29.90
2019-03-11T04:30:10.373Z,29.90
2019-03-11T04:30:49.326Z,29.80
2019-03-11T04:31:28.663Z,29.90
2019-03-11T04:32:08.040Z,29.80
2019-03-11T04:32:47.322Z,29.90
2019-03-11T04:33:27.085Z,29.90
2019-03-11T04:34:06.140Z,29.90
2019-03-11T04:34:44.788Z,29.90
2019-03-11T04:35:23.580Z,29.90
2019-03-11T04:36:02.296Z,29.90
2019-03-11T04:36:41.464Z,29.90
2019-03-11T04:37:20.748Z,29.90
2019-03-11T04:38:00.105Z,29.90
2019-03-11T04:38:38.847Z,29.90
2019-03-11T04:39:18.251Z,29.90
2019-03-11T04:39:57.893Z,29.90
2019-03-11T04:40:37.832Z,29.90
2019-03-11T04:41:17.692Z,29.90
2019-03-11T04:41:56.521Z,29.90
2019-03-11T04:42:35.862Z,29.90
2019-03-11T04:43:14.673Z,29.90
2019-03-11T04:43:53.447Z,29.90
2019-03-11T04:44:33.100Z,29.90
2019-03-11T04:45:13.278Z,29.90
2019-03-11T04:45:52.679Z,30.00
2019-03-11T04:46:31.594Z,30.00
2019-03-11T04:47:10.850Z,30.00
2019-03-11T04:47:50.510Z,30.00
2019-03-11T04:48:29.749Z,30.00
2019-03-11T04:49:09.167Z,30.00
2019-03-11T04:49:48.646Z,30.10
2019-03-11T04:50:28.934Z,30.10
2019-03-11T04:51:08.410Z,30.10
2019-03-11T04:51:47.723Z,30.10
2019-03-11T04:52:27.078Z,30.10
2019-03-11T04:53:06.518Z,30.00
2019-03-11T04:53:45.439Z,30.00
2019-03-11T04:54:24.581Z,30.00
2019-03-11T04:55:03.353Z,30.00
2019-03-11T04:55:42.484Z,30.00
2019-03-11T04:56:22.350Z,30.00
2019-03-11T04:57:01.808Z,30.00
2019-03-11T04:57:48.804Z,30.10
2019-03-11T04:58:28.349Z,30.10
2019-03-11T04:59:15.517Z,30.10
2019-03-11T04:59:55.110Z,30.10
2019-03-11T05:00:33.924Z,30.10
2019-03-11T05:01:12.605Z,30.10
2019-03-11T05:01:51.780Z,30.10
2019-03-11T05:02:31.053Z,30.10
2019-03-11T05:03:12.996Z,30.10
2019-03-11T05:03:51.715Z,30.10
2019-03-11T05:04:31.057Z,30.10
2019-03-11T05:05:09.996Z,30.10
2019-03-11T05:05:48.815Z,30.10
2019-03-11T05:06:28.295Z,30.10
2019-03-11T05:07:07.011Z,30.10
2019-03-11T05:07:45.819Z,30.10
2019-03-11T05:08:24.559Z,30.10
2019-03-11T05:09:04.374Z,30.10
2019-03-11T05:09:43.572Z,30.10
2019-03-11T05:10:23.110Z,30.10
2019-03-11T05:11:02.326Z,30.10
2019-03-11T05:11:41.553Z,30.10
2019-03-11T05:12:21.173Z,30.10
2019-03-11T05:13:00.587Z,30.10
2019-03-11T05:13:40.049Z,30.10
2019-03-11T05:14:19.432Z,30.10
2019-03-11T05:14:58.877Z,30.10
2019-03-11T05:15:38.248Z,30.10
2019-03-11T05:16:17.001Z,30.10
2019-03-11T05:16:55.753Z,30.10
2019-03-11T05:17:34.760Z,30.10
2019-03-11T05:18:13.526Z,30.10
2019-03-11T05:18:52.707Z,30.10
2019-03-11T05:19:31.928Z,30.10
2019-03-11T05:20:11.686Z,30.10
2019-03-11T05:20:51.039Z,30.20
2019-03-11T05:21:30.428Z,30.20
2019-03-11T05:22:09.150Z,30.20
2019-03-11T05:22:47.857Z,30.20
2019-03-11T05:23:26.633Z,30.20
2019-03-11T05:24:05.631Z,30.20
2019-03-11T05:24:44.391Z,30.20
2019-03-11T05:25:23.837Z,30.20
2019-03-11T05:26:03.026Z,30.20
2019-03-11T05:26:42.249Z,30.20
2019-03-11T05:27:21.722Z,30.20
2019-03-11T05:28:01.134Z,30.20
2019-03-11T05:28:39.825Z,30.20
2019-03-11T05:29:19.357Z,30.20
2019-03-11T05:29:58.039Z,30.20
2019-03-11T05:30:36.824Z,30.20
2019-03-11T05:31:15.766Z,30.20
2019-03-11T05:31:54.937Z,30.20
2019-03-11T05:32:34.122Z,30.20
2019-03-11T05:33:13.251Z,30.20
2019-03-11T05:33:53.240Z,30.30
2019-03-11T05:34:33.049Z,30.30
2019-03-11T05:35:12.341Z,30.20
2019-03-11T05:35:51.836Z,30.30
2019-03-11T05:36:31.154Z,30.30
2019-03-11T05:37:10.585Z,30.30
2019-03-11T05:37:52.864Z,30.30
2019-03-11T05:38:32.236Z,30.30
2019-03-11T05:39:12.276Z,30.30
2019-03-11T05:39:52.434Z,30.30
2019-03-11T05:40:31.846Z,30.40
2019-03-11T05:41:11.213Z,30.30
2019-03-11T05:41:50.249Z,30.30
2019-03-11T05:42:28.993Z,30.30
2019-03-11T05:43:08.330Z,30.40
2019-03-11T05:43:47.069Z,30.30
2019-03-11T05:44:26.112Z,30.30
2019-03-11T05:45:05.306Z,30.30
2019-03-11T05:45:44.803Z,30.30
2019-03-11T05:46:24.225Z,30.30
2019-03-11T05:47:03.768Z,30.30
2019-03-11T05:47:43.132Z,30.30
2019-03-11T05:48:23.329Z,30.30
2019-03-11T05:49:02.947Z,30.30
2019-03-11T05:49:42.474Z,30.30
2019-03-11T05:50:21.267Z,30.30
2019-03-11T05:51:00.015Z,30.30
2019-03-11T05:51:38.873Z,30.30
2019-03-11T05:52:18.681Z,30.20
2019-03-11T05:52:58.461Z,30.20
2019-03-11T05:53:37.860Z,30.30
2019-03-11T05:54:17.905Z,30.20
2019-03-11T05:54:57.180Z,30.30
2019-03-11T05:55:36.574Z,30.30
2019-03-11T05:56:15.923Z,30.30
2019-03-11T05:56:55.482Z,30.30
2019-03-11T05:57:35.363Z,30.30
2019-03-11T05:58:15.367Z,30.30
2019-03-11T05:58:54.886Z,30.30
2019-03-11T05:59:34.328Z,30.30
2019-03-11T06:00:17.259Z,30.30
2019-03-11T06:00:56.462Z,30.30
2019-03-11T06:01:35.902Z,30.30
2019-03-11T06:02:15.373Z,30.30
2019-03-11T06:02:55.073Z,30.30
2019-03-11T06:03:34.313Z,30.30
2019-03-11T06:04:13.652Z,30.30
2019-03-11T06:04:53.288Z,30.30
2019-03-11T06:05:32.192Z,30.30
2019-03-11T06:06:10.946Z,30.30
2019-03-11T06:06:49.538Z,30.30
2019-03-11T06:07:28.801Z,30.30
2019-03-11T06:08:08.983Z,30.30
2019-03-11T06:08:48.754Z,30.30
2019-03-11T06:09:27.723Z,30.30
2019-03-11T06:10:07.079Z,30.30
2019-03-11T06:10:46.619Z,30.40
2019-03-11T06:11:26.011Z,30.40
2019-03-11T06:12:05.489Z,30.40
2019-03-11T06:12:44.307Z,30.40
2019-03-11T06:13:23.756Z,30.40
2019-03-11T06:14:02.582Z,30.40
2019-03-11T06:14:42.477Z,30.40
2019-03-11T06:15:21.280Z,30.40
2019-03-11T06:15:59.999Z,30.40
2019-03-11T06:16:39.133Z,30.40
2019-03-11T06:17:18.737Z,30.40
2019-03-11T06:17:58.093Z,30.40
2019-03-11T06:18:49.098Z,30.40
2019-03-11T06:19:31.284Z,30.40
2019-03-11T06:20:29.900Z,30.30
2019-03-11T06:21:25.953Z,30.30
2019-03-11T06:22:15.409Z,30.30
2019-03-11T06:22:54.139Z,30.30
2019-03-11T06:23:32.866Z,30.30
2019-03-11T06:24:11.529Z,30.30
2019-03-11T06:24:50.315Z,30.30
2019-03-11T06:25:29.290Z,30.30
2019-03-11T06:26:08.626Z,30.30
2019-03-11T06:26:47.994Z,30.30
2019-03-11T06:27:27.440Z,30.30
2019-03-11T06:28:06.855Z,30.30
2019-03-11T06:28:46.146Z,30.30
2019-03-11T06:29:30.614Z,30.30
2019-03-11T06:30:08.155Z,30.30
2019-03-11T06:30:47.376Z,30.30
2019-03-11T06:31:26.583Z,30.30
2019-03-11T06:32:06.166Z,30.30
2019-03-11T06:32:45.595Z,30.30
2019-03-11T06:33:25.057Z,30.30
2019-03-11T06:34:03.702Z,30.30
2019-03-11T06:34:43.131Z,30.30
2019-03-11T06:35:21.875Z,30.30
2019-03-11T06:36:00.895Z,30.20
2019-03-11T06:36:40.149Z,30.20
2019-03-11T06:37:19.570Z,30.30
2019-03-11T06:37:58.716Z,30.30
2019-03-11T06:38:37.980Z,30.30
2019-03-11T06:39:17.520Z,30.30
2019-03-11T06:39:56.733Z,30.30
2019-03-11T06:40:36.224Z,30.30
2019-03-11T06:41:14.932Z,30.30
2019-03-11T06:41:53.636Z,30.30
2019-03-11T06:42:32.368Z,30.30
2019-03-11T06:43:11.292Z,30.30
2019-03-11T06:43:50.589Z,30.30
2019-03-11T06:44:30.137Z,30.30
2019-03-11T06:45:09.267Z,30.30
2019-03-11T06:45:48.067Z,30.30
2019-03-11T06:46:27.381Z,30.30
2019-03-11T06:47:06.850Z,30.30
2019-03-11T06:47:46.348Z,30.30
2019-03-11T06:48:25.483Z,30.30
2019-03-11T06:49:04.192Z,30.30
2019-03-11T06:49:42.971Z,30.30
2019-03-11T06:50:21.763Z,30.30
2019-03-11T06:51:00.973Z,30.30
2019-03-11T06:51:40.482Z,30.30
2019-03-11T06:52:19.655Z,30.30
2019-03-11T06:52:59.033Z,30.30
2019-03-11T06:53:40.131Z,30.40
2019-03-11T06:54:19.613Z,30.40
2019-03-11T06:54:58.952Z,30.40
2019-03-11T06:55:38.364Z,30.40
2019-03-11T06:56:35.591Z,30.30
2019-03-11T06:57:14.383Z,30.40
2019-03-11T06:57:53.192Z,30.40
2019-03-11T06:58:32.231Z,30.40
2019-03-11T06:59:11.649Z,30.40
2019-03-11T06:59:50.939Z,30.40
2019-03-11T07:00:30.589Z,30.40
2019-03-11T07:01:09.841Z,30.40
2019-03-11T07:01:49.394Z,30.40
2019-03-11T07:02:28.562Z,30.40
2019-03-11T07:03:07.335Z,30.40
2019-03-11T07:03:46.483Z,30.30
2019-03-11T07:04:28.688Z,30.40
2019-03-11T07:05:18.764Z,30.40
2019-03-11T07:05:48.961Z,30.40
2019-03-11T07:06:28.205Z,30.40
2019-03-11T07:07:07.648Z,30.40
2019-03-11T07:07:46.418Z,30.40
2019-03-11T07:08:25.088Z,30.40
2019-03-11T07:09:03.846Z,30.40
2019-03-11T07:09:43.104Z,30.40
2019-03-11T07:10:24.116Z,30.40
2019-03-11T07:11:03.331Z,30.40
2019-03-11T07:11:42.824Z,30.40
2019-03-11T07:12:22.098Z,30.40
2019-03-11T07:13:01.443Z,30.40
2019-03-11T07:13:40.610Z,30.40
2019-03-11T07:14:20.025Z,30.40
2019-03-11T07:14:59.500Z,30.40
2019-03-11T07:15:38.795Z,30.40
2019-03-11T07:16:18.770Z,30.40
2019-03-11T07:16:57.622Z,30.40
2019-03-11T07:17:37.247Z,30.50
2019-03-11T07:18:16.803Z,30.50
2019-03-11T07:18:56.311Z,30.50
2019-03-11T07:19:35.232Z,30.40
2019-03-11T07:20:15.746Z,30.50
2019-03-11T07:20:54.669Z,30.50
2019-03-11T07:21:33.685Z,30.50
2019-03-11T07:22:14.507Z,30.50
2019-03-11T07:22:53.494Z,30.50
2019-03-11T07:23:32.752Z,30.50
2019-03-11T07:24:12.133Z,30.50
2019-03-11T07:24:51.704Z,30.50
2019-03-11T07:25:30.891Z,30.50
2019-03-11T07:26:10.468Z,30.50
2019-03-11T07:26:49.733Z,30.50
2019-03-11T07:27:29.113Z,30.50
2019-03-11T07:28:07.763Z,30.50
2019-03-11T07:28:46.669Z,30.50
2019-03-11T07:29:25.398Z,30.50
2019-03-11T07:30:04.421Z,30.50
2019-03-11T07:30:43.564Z,30.50
2019-03-11T07:31:22.876Z,30.50
2019-03-11T07:32:02.179Z,30.50
2019-03-11T07:32:41.799Z,30.50
2019-03-11T07:33:24.651Z,30.50
2019-03-11T07:34:03.771Z,30.50
2019-03-11T07:34:43.054Z,30.50
2019-03-11T07:35:25.672Z,30.50
2019-03-11T07:36:04.983Z,30.50
2019-03-11T07:36:44.982Z,30.50
2019-03-11T07:37:24.148Z,30.50
2019-03-11T07:38:03.457Z,30.50
2019-03-11T07:38:42.688Z,30.50
2019-03-11T07:39:22.401Z,30.50
2019-03-11T07:40:01.081Z,30.50
2019-03-11T07:40:41.071Z,30.60
2019-03-11T07:41:21.067Z,30.50
2019-03-11T07:41:59.787Z,30.50
2019-03-11T07:42:38.461Z,30.50
2019-03-11T07:43:17.261Z,30.60
2019-03-11T07:43:56.051Z,30.60
2019-03-11T07:44:35.287Z,30.60
2019-03-11T07:45:14.269Z,30.60
2019-03-11T07:45:53.675Z,30.60
2019-03-11T07:46:32.495Z,30.60
2019-03-11T07:47:12.070Z,30.50
2019-03-11T07:47:51.435Z,30.60
2019-03-11T07:48:30.352Z,30.60
2019-03-11T07:49:09.600Z,30.60
2019-03-11T07:49:48.778Z,30.60
2019-03-11T07:50:27.512Z,30.60
2019-03-11T07:51:07.355Z,30.60
2019-03-11T07:51:46.852Z,30.60
2019-03-11T07:52:25.657Z,30.60
2019-03-11T07:53:05.389Z,30.60
2019-03-11T07:53:44.168Z,30.60
2019-03-11T07:54:23.654Z,30.60
2019-03-11T07:55:03.015Z,30.60
2019-03-11T07:55:42.876Z,30.60
2019-03-11T07:56:24.067Z,30.60
2019-03-11T07:57:02.947Z,30.60
2019-03-11T07:57:42.294Z,30.60
2019-03-11T07:58:24.414Z,30.60
2019-03-11T07:59:03.810Z,30.60
2019-03-11T07:59:43.740Z,30.60
2019-03-11T08:00:23.084Z,30.60
2019-03-11T08:01:02.623Z,30.60
2019-03-11T08:01:42.159Z,30.60
2019-03-11T08:02:23.736Z,30.60
2019-03-11T08:03:03.184Z,30.60
2019-03-11T08:03:43.091Z,30.60
2019-03-11T08:04:22.643Z,30.60
2019-03-11T08:05:02.120Z,30.60
2019-03-11T08:05:41.305Z,30.60
2019-03-11T08:06:20.092Z,30.60
2019-03-11T08:06:59.023Z,30.60
2019-03-11T08:07:37.859Z,30.60
2019-03-11T08:08:17.059Z,30.60
2019-03-11T08:08:56.428Z,30.60
2019-03-11T08:09:38.081Z,30.60
2019-03-11T08:10:15.843Z,30.60
2019-03-11T08:10:55.139Z,30.60
2019-03-11T08:11:34.675Z,30.60
2019-03-11T08:12:14.098Z,30.60
2019-03-11T08:12:53.340Z,30.60
2019-03-11T08:13:32.870Z,30.60
2019-03-11T08:14:11.602Z,30.60
2019-03-11T08:14:50.429Z,30.60
2019-03-11T08:15:29.545Z,30.70
2019-03-11T08:16:08.646Z,30.60
2019-03-11T08:16:47.685Z,30.60
2019-03-11T08:17:27.276Z,30.70
2019-03-11T08:18:06.646Z,30.70
2019-03-11T08:18:46.044Z,30.70
2019-03-11T08:19:25.875Z,30.70
2019-03-11T08:20:05.987Z,30.70
2019-03-11T08:20:45.401Z,30.70
2019-03-11T08:21:27.337Z,30.70
2019-03-11T08:22:06.878Z,30.70
2019-03-11T08:22:47.123Z,30.70
2019-03-11T08:23:27.220Z,30.70
2019-03-11T08:24:07.203Z,30.70
2019-03-11T08:24:47.180Z,30.70
2019-03-11T08:25:27.138Z,30.70
2019-03-11T08:26:06.963Z,30.70
2019-03-11T08:26:47.239Z,30.70
2019-03-11T08:27:27.261Z,30.70
2019-03-11T08:28:06.861Z,30.70
2019-03-11T08:28:46.993Z,30.70
2019-03-11T08:29:26.972Z,30.70
2019-03-11T08:30:06.667Z,30.70
2019-03-11T08:30:46.720Z,30.70
2019-03-11T08:31:27.087Z,30.70
2019-03-11T08:32:09.162Z,30.70